Time;durP1;ratioP1;P1;durP2;ratioP2;P2;SDS_P1;SDS_P2;PMS_P1;PMS_P2;Temp;Humidity;BMP_temperature;BMP_pressure;BME280_temperature;BME280_humidity;BME280_pressure;Samples;Min_cycle;Max_cycle;Signal;HPM_P1;HPM_P2
2023/08/05 00:08:20;;;;;;;1.67;0.88;;;11.60;99.90;;;;;;25570185;23;20005;-50
2023/08/05 00:18:21;;;;;;;1.70;1.08;;;11.40;99.90;;;;;;25596028;23;20243;-52
2023/08/05 00:28:23;;;;;;;2.15;1.10;;;11.30;99.90;;;;;;25595752;23;20005;-49
2023/08/05 00:38:25;;;;;;;2.75;1.30;;;11.20;99.90;;;;;;25595273;23;20040;-51
2023/08/05 00:48:27;;;;;;;5.55;1.48;;;11.00;99.90;;;;;;25594207;23;20083;-43
2023/08/05 00:58:31;;;;;;;3.47;1.40;;;10.90;99.90;;;;;;25594404;23;20005;-52
2023/08/05 01:08:34;;;;;;;2.22;1.10;;;10.90;99.90;;;;;;25567727;23;20258;-48
2023/08/05 01:18:38;;;;;;;3.05;1.10;;;10.90;99.90;;;;;;25593275;23;20009;-48
2023/08/05 01:28:40;;;;;;;2.65;0.65;;;11.00;99.90;;;;;;25566823;23;20060;-48
2023/08/05 01:38:43;;;;;;;1.77;0.60;;;11.00;99.90;;;;;;25593648;23;20028;-51
2023/08/05 01:48:45;;;;;;;0.98;0.60;;;11.00;99.90;;;;;;25592286;23;20381;-51
2023/08/05 01:58:47;;;;;;;1.45;0.70;;;10.90;99.90;;;;;;25565419;23;20009;-44
2023/08/05 02:08:48;;;;;;;1.25;0.70;;;11.00;99.90;;;;;;25565214;23;20068;-44
2023/08/05 02:18:51;;;;;;;2.00;0.57;;;10.90;99.90;;;;;;25564624;23;20005;-53
2023/08/05 02:28:52;;;;;;;1.42;0.57;;;10.90;99.90;;;;;;25564490;23;20328;-48
2023/08/05 02:38:54;;;;;;;1.10;0.60;;;10.90;99.90;;;;;;25563860;23;20009;-52
2023/08/05 02:48:56;;;;;;;1.65;0.52;;;10.80;99.90;;;;;;25591603;23;20020;-54
2023/08/05 02:58:58;;;;;;;1.58;0.55;;;10.70;99.90;;;;;;25563742;23;20389;-48
2023/08/05 03:09:00;;;;;;;1.90;0.40;;;10.70;99.90;;;;;;25562936;23;20429;-48
2023/08/05 03:19:03;;;;;;;0.57;0.30;;;10.60;99.90;;;;;;25588963;23;20005;-45
2023/08/05 03:29:06;;;;;;;1.23;0.20;;;10.60;99.90;;;;;;25562865;23;20008;-44
2023/08/05 03:39:08;;;;;;;0.47;0.30;;;10.50;99.90;;;;;;25562387;23;20041;-55
2023/08/05 03:49:10;;;;;;;1.73;0.20;;;10.40;99.90;;;;;;25588872;23;20009;-55
2023/08/05 03:59:12;;;;;;;0.43;0.20;;;10.50;99.90;;;;;;25562565;23;20440;-46
2023/08/05 04:09:14;;;;;;;0.30;0.20;;;10.60;99.90;;;;;;25588484;23;20086;-44
2023/08/05 04:19:17;;;;;;;0.30;0.10;;;10.70;99.90;;;;;;25590403;23;20009;-44
2023/08/05 04:29:22;;;;;;;0.30;0.13;;;10.70;99.90;;;;;;25595356;23;20380;-57
2023/08/05 04:39:24;;;;;;;0.32;0.20;;;10.70;99.90;;;;;;25594456;23;20491;-43
2023/08/05 04:49:26;;;;;;;1.65;0.20;;;10.70;99.90;;;;;;25594413;23;20013;-49
2023/08/05 04:59:28;;;;;;;0.80;0.20;;;10.70;99.90;;;;;;25594139;23;20001;-46
2023/08/05 05:09:30;;;;;;;2.33;0.30;;;10.80;99.90;;;;;;25593986;23;20441;-55
2023/08/05 05:19:32;;;;;;;0.25;0.10;;;10.90;99.90;;;;;;25593446;23;20581;-51
2023/08/05 05:29:34;;;;;;;0.30;0.17;;;11.10;99.90;;;;;;25592446;23;20027;-47
2023/08/05 05:39:36;;;;;;;0.38;0.10;;;11.20;99.90;;;;;;25607918;23;20044;-45
2023/08/05 05:49:38;;;;;;;1.00;0.10;;;11.20;99.90;;;;;;25592527;23;20009;-54
2023/08/05 05:59:40;;;;;;;0.52;0.10;;;11.30;99.90;;;;;;25591726;23;20001;-50
2023/08/05 06:09:42;;;;;;;0.17;0.03;;;11.20;99.90;;;;;;25591265;23;20005;-55
2023/08/05 06:19:44;;;;;;;0.52;0.10;;;11.20;99.90;;;;;;25591212;23;20075;-56
2023/08/05 06:29:45;;;;;;;0.30;0.00;;;11.10;99.90;;;;;;25590575;23;20028;-47
2023/08/05 06:39:47;;;;;;;0.10;0.00;;;10.80;99.90;;;;;;25589551;23;20013;-56
2023/08/05 06:49:49;;;;;;;0.00;0.00;;;10.70;99.90;;;;;;25590052;23;20454;-49
2023/08/05 06:59:51;;;;;;;0.10;0.00;;;10.60;99.90;;;;;;25589713;23;20016;-55
2023/08/05 07:10:00;;;;;;;0.00;0.00;;;10.70;99.90;;;;;;25589399;23;20051;-50
2023/08/05 07:20:04;;;;;;;0.22;0.00;;;10.80;99.90;;;;;;25603636;23;20004;-52
2023/08/05 07:30:07;;;;;;;0.00;0.00;;;10.80;99.90;;;;;;25588811;23;20013;-55
2023/08/05 07:40:13;;;;;;;0.63;0.00;;;10.80;99.90;;;;;;25588599;23;20059;-51
2023/08/05 07:50:16;;;;;;;0.00;0.00;;;11.00;99.90;;;;;;25629972;23;20012;-44
2023/08/05 08:00:18;;;;;;;0.10;0.00;;;11.00;99.90;;;;;;25595547;23;20341;-50
2023/08/05 08:10:24;;;;;;;0.00;0.00;;;11.30;99.90;;;;;;25596146;23;20001;-46
2023/08/05 08:20:26;;;;;;;0.03;0.00;;;11.80;99.90;;;;;;25636665;23;20037;-56
2023/08/05 08:30:28;;;;;;;0.00;0.00;;;12.30;99.90;;;;;;25595348;23;20432;-48
2023/08/05 08:40:32;;;;;;;0.28;0.00;;;12.80;99.90;;;;;;25594638;23;20016;-55
2023/08/05 08:50:36;;;;;;;0.10;0.00;;;13.30;99.90;;;;;;25593210;23;20013;-47
2023/08/05 09:00:38;;;;;;;0.90;0.65;;;13.70;99.90;;;;;;25594157;23;20001;-50
2023/08/05 09:10:40;;;;;;;0.10;0.03;;;13.80;99.90;;;;;;25593252;23;20012;-56
2023/08/05 09:20:42;;;;;;;1.60;0.60;;;14.20;99.90;;;;;;25564509;23;20009;-54
2023/08/05 09:30:44;;;;;;;2.58;1.40;;;14.80;99.90;;;;;;25593119;23;20416;-55
2023/08/05 09:40:48;;;;;;;0.00;0.00;;;15.20;99.90;;;;;;25592134;23;20123;-56
2023/08/05 09:50:51;;;;;;;0.00;0.00;;;15.20;99.90;;;;;;25591977;23;20013;-53
2023/08/05 10:00:55;;;;;;;0.10;0.00;;;15.70;99.90;;;;;;25591417;23;20001;-55
2023/08/05 10:10:59;;;;;;;0.10;0.08;;;16.40;99.90;;;;;;25591137;23;20040;-56
2023/08/05 10:21:04;;;;;;;0.00;0.00;;;17.30;99.90;;;;;;25589403;23;20058;-55
2023/08/05 10:31:22;;;;;;;0.00;0.00;;;17.40;99.90;;;;;;25590279;23;20008;-49
2023/08/05 10:41:35;;;;;;;0.10;0.00;;;17.00;99.90;;;;;;25598519;23;20013;-55
2023/08/05 10:51:40;;;;;;;1.35;0.00;;;16.60;99.90;;;;;;25631199;23;20009;-53
2023/08/05 11:01:59;;;;;;;0.32;0.10;;;16.40;99.90;;;;;;25563372;23;20001;-54
2023/08/05 11:12:01;;;;;;;2.03;1.30;;;16.30;99.90;;;;;;25630622;23;20012;-56
2023/08/05 11:22:03;;;;;;;0.00;0.00;;;16.50;99.90;;;;;;25538404;23;20001;-55
2023/08/05 11:32:05;;;;;;;1.20;0.38;;;16.90;99.90;;;;;;25593921;23;20488;-53
2023/08/05 11:42:08;;;;;;;0.00;0.00;;;17.20;99.90;;;;;;25597108;23;20345;-52
2023/08/05 11:52:13;;;;;;;0.17;0.00;;;17.40;99.90;;;;;;25596521;23;20071;-53
2023/08/05 12:02:17;;;;;;;0.10;0.00;;;17.70;99.40;;;;;;25597571;23;20079;-47
2023/08/05 12:12:20;;;;;;;0.00;0.00;;;18.10;99.90;;;;;;25569888;23;20001;-47
2023/08/05 12:22:24;;;;;;;0.65;0.10;;;18.50;99.70;;;;;;25595551;23;20377;-54
2023/08/05 12:32:26;;;;;;;0.40;0.20;;;18.60;99.50;;;;;;25568339;23;20040;-56
2023/08/05 12:42:29;;;;;;;0.50;0.30;;;18.60;99.30;;;;;;25594691;23;20013;-56
2023/08/05 12:52:33;;;;;;;2.05;1.90;;;18.80;98.70;;;;;;25594553;23;20005;-57
2023/08/05 13:02:35;;;;;;;3.20;1.70;;;19.90;99.90;;;;;;25566669;23;20012;-51
2023/08/05 13:12:39;;;;;;;2.67;1.30;;;21.80;99.90;;;;;;25591876;23;20021;-57
2023/08/05 13:22:41;;;;;;;2.28;1.90;;;21.90;99.90;;;;;;25589547;23;20012;-56
2023/08/05 13:32:43;;;;;;;1.75;0.90;;;21.50;99.90;;;;;;25592084;23;20009;-56
2023/08/05 13:42:46;;;;;;;2.17;1.98;;;20.80;99.90;;;;;;25592151;23;20452;-57
2023/08/05 13:52:48;;;;;;;2.30;1.40;;;20.00;99.90;;;;;;25632733;23;20013;-56
2023/08/05 14:02:53;;;;;;;0.90;0.80;;;19.70;99.90;;;;;;25591737;23;20586;-57
2023/08/05 14:12:56;;;;;;;1.38;0.57;;;21.40;99.90;;;;;;25591090;23;20005;-58
2023/08/05 14:22:57;;;;;;;0.60;0.40;;;22.80;99.90;;;;;;25590669;23;20437;-58
2023/08/05 14:32:59;;;;;;;0.65;0.40;;;23.10;99.90;;;;;;25590527;23;20305;-57
2023/08/05 14:43:02;;;;;;;0.60;0.60;;;22.00;99.90;;;;;;25590120;23;20009;-57
2023/08/05 14:53:04;;;;;;;1.67;0.90;;;20.70;99.90;;;;;;25589790;23;20036;-57
2023/08/05 15:03:06;;;;;;;1.20;1.10;;;20.00;99.90;;;;;;25589078;23;20004;-58
2023/08/05 15:13:07;;;;;;;1.60;0.90;;;20.10;99.90;;;;;;25589483;23;20068;-50
2023/08/05 15:23:09;;;;;;;2.42;1.05;;;21.90;99.90;;;;;;25588853;23;20016;-57
2023/08/05 15:33:12;;;;;;;1.95;0.70;;;21.70;99.90;;;;;;25588853;23;20009;-57
2023/08/05 15:43:13;;;;;;;1.42;0.63;;;19.90;99.90;;;;;;25562239;23;20444;-57
2023/08/05 15:53:15;;;;;;;1.45;1.10;;;18.50;99.90;;;;;;25588290;23;20009;-57
2023/08/05 16:03:17;;;;;;;3.25;1.90;;;17.50;99.90;;;;;;25588393;23;20009;-56
2023/08/05 16:13:19;;;;;;;3.53;2.03;;;17.40;99.90;;;;;;25590558;23;20495;-57
2023/08/05 16:23:21;;;;;;;3.20;2.55;;;16.80;99.90;;;;;;25595446;23;20353;-56
2023/08/05 16:33:23;;;;;;;4.88;2.75;;;16.70;99.90;;;;;;25594921;23;20001;-55
2023/08/05 16:43:25;;;;;;;3.28;2.50;;;16.90;99.90;;;;;;25594721;23;20023;-54
2023/08/05 16:53:27;;;;;;;5.22;2.92;;;17.00;99.90;;;;;;25594478;23;20285;-57
2023/08/05 17:03:29;;;;;;;3.40;3.00;;;16.60;99.90;;;;;;25594417;23;20015;-54
2023/08/05 17:13:31;;;;;;;5.20;3.15;;;16.00;99.90;;;;;;25594099;23;20067;-56
2023/08/05 17:23:33;;;;;;;3.70;2.88;;;15.70;99.90;;;;;;25593132;23;20063;-55
2023/08/05 17:33:35;;;;;;;4.20;3.63;;;15.70;99.90;;;;;;25593387;23;20336;-56
2023/08/05 17:43:37;;;;;;;8.77;5.05;;;15.90;99.90;;;;;;25633953;23;20016;-55
2023/08/05 17:53:39;;;;;;;6.07;4.00;;;15.60;99.90;;;;;;25592184;23;20460;-55
2023/08/05 18:03:40;;;;;;;6.80;5.28;;;15.30;99.90;;;;;;25592012;23;20005;-56
2023/08/05 18:13:43;;;;;;;17.73;13.38;;;15.10;99.90;;;;;;25591544;23;20016;-56
2023/08/05 18:23:46;;;;;;;13.77;11.50;;;14.90;99.90;;;;;;25590892;23;20441;-56
2023/08/05 18:33:48;;;;;;;16.05;13.38;;;14.70;99.90;;;;;;25590063;23;20005;-56
2023/08/05 18:43:50;;;;;;;6.35;4.93;;;14.40;99.90;;;;;;25630983;23;20079;-56
2023/08/05 18:53:51;;;;;;;7.82;4.93;;;14.10;99.90;;;;;;25589902;23;20008;-56
2023/08/05 19:03:53;;;;;;;7.72;4.90;;;13.60;99.90;;;;;;25589696;23;20040;-50
2023/08/05 19:13:55;;;;;;;0.82;0.13;;;13.20;99.90;;;;;;25589596;23;20306;-55
2023/08/05 19:23:57;;;;;;;0.77;0.10;;;13.10;99.90;;;;;;25589149;23;20005;-54
2023/08/05 19:33:59;;;;;;;0.60;0.30;;;12.80;99.90;;;;;;25588537;23;20009;-46
2023/08/05 19:44:01;;;;;;;0.20;0.10;;;12.50;99.90;;;;;;25629863;23;20001;-54
2023/08/05 19:54:05;;;;;;;1.58;0.10;;;12.20;99.90;;;;;;25594289;23;20329;-56
2023/08/05 20:04:08;;;;;;;0.43;0.10;;;11.90;99.90;;;;;;25596227;23;20001;-50
2023/08/05 20:14:10;;;;;;;1.83;0.17;;;11.60;99.90;;;;;;25595921;23;20009;-55
2023/08/05 20:24:12;;;;;;;1.92;0.25;;;11.40;99.90;;;;;;25595844;23;20001;-50
2023/08/05 20:34:14;;;;;;;1.00;0.43;;;11.30;99.90;;;;;;25594982;23;20432;-53
2023/08/05 20:44:16;;;;;;;0.20;0.20;;;11.50;99.90;;;;;;25594888;23;20065;-55
2023/08/05 20:54:17;;;;;;;0.10;0.10;;;11.30;99.90;;;;;;25594489;23;20005;-54
2023/08/05 21:04:19;;;;;;;0.85;0.30;;;11.10;99.90;;;;;;25593445;23;20388;-47
2023/08/05 21:14:21;;;;;;;0.95;0.20;;;11.00;99.90;;;;;;25593891;23;20009;-52
2023/08/05 21:24:23;;;;;;;1.42;0.10;;;11.10;99.90;;;;;;25593061;23;20330;-54
2023/08/05 21:34:26;;;;;;;0.30;0.20;;;11.10;99.90;;;;;;25593712;23;20009;-54
2023/08/05 21:44:28;;;;;;;0.22;0.10;;;11.20;99.90;;;;;;25592692;23;20001;-54
2023/08/05 21:54:29;;;;;;;1.27;0.10;;;11.10;99.90;;;;;;25592254;23;20009;-53
2023/08/05 22:04:31;;;;;;;0.63;0.10;;;11.00;99.90;;;;;;25591712;23;20001;-52
2023/08/05 22:14:37;;;;;;;0.28;0.10;;;10.90;99.90;;;;;;25591279;23;20012;-53
2023/08/05 22:24:41;;;;;;;0.10;0.10;;;10.90;99.90;;;;;;25632017;23;20001;-50
2023/08/05 22:34:44;;;;;;;0.55;0.20;;;11.00;99.90;;;;;;25590003;23;20318;-47
2023/08/05 22:44:46;;;;;;;0.13;0.10;;;11.30;99.90;;;;;;25590501;23;20004;-54
2023/08/05 22:54:48;;;;;;;0.57;0.20;;;11.40;99.90;;;;;;25591348;23;20012;-51
2023/08/05 23:04:51;;;;;;;0.95;0.10;;;11.50;99.90;;;;;;25591084;23;20001;-53
2023/08/05 23:14:53;;;;;;;0.22;0.13;;;11.90;99.90;;;;;;25589360;23;20009;-45
2023/08/05 23:24:54;;;;;;;0.20;0.10;;;12.00;99.90;;;;;;25588673;23;20005;-48
2023/08/05 23:34:56;;;;;;;0.30;0.10;;;12.10;99.90;;;;;;25588613;23;20009;-50
2023/08/05 23:44:58;;;;;;;0.88;0.10;;;12.10;99.90;;;;;;25562533;23;20009;-51
2023/08/05 23:54:59;;;;;;;0.40;0.20;;;11.90;99.90;;;;;;25588711;23;20005;-53
